Time;durP1;ratioP1;P1;durP2;ratioP2;P2;SDS_P1;SDS_P2;PMS_P1;PMS_P2;Temp;Humidity;BMP_temperature;BMP_pressure;BME280_temperature;BME280_humidity;BME280_pressure;Samples;Min_cycle;Max_cycle;Signal;HPM_P1;HPM_P2
2021/12/19 00:03:56;;;;;;;7.93;6.55;;;;;;;;;;5013572;28;20429;-59
2021/12/19 00:09:06;;;;;;;7.97;6.43;;;;;;;;;;5023358;28;20061;-59
2021/12/19 00:11:31;;;;;;;9.80;6.38;;;;;;;;;;5021463;28;20057;-59
2021/12/19 00:13:56;;;;;;;7.60;6.18;;;;;;;;;;5022440;28;20018;-59
2021/12/19 00:16:22;;;;;;;7.82;6.28;;;;;;;;;;5019167;28;20460;-59
2021/12/19 00:18:48;;;;;;;11.35;8.73;;;;;;;;;;5021452;28;20020;-59
2021/12/19 00:21:15;;;;;;;9.77;7.70;;;;;;;;;;5021242;28;20033;-60
2021/12/19 00:23:41;;;;;;;15.77;8.32;;;;;;;;;;5024172;28;20025;-59
2021/12/19 00:26:06;;;;;;;11.25;6.93;;;;;;;;;;5021353;28;20035;-59
2021/12/19 00:28:32;;;;;;;10.13;7.43;;;;;;;;;;5023199;28;20026;-59
2021/12/19 00:30:57;;;;;;;14.30;9.07;;;;;;;;;;5020774;28;20038;-60
2021/12/19 00:33:22;;;;;;;10.30;6.70;;;;;;;;;;5023483;28;20075;-60
2021/12/19 00:35:47;;;;;;;8.97;6.00;;;;;;;;;;5020170;28;20041;-59
2021/12/19 00:38:12;;;;;;;9.55;8.05;;;;;;;;;;5023016;28;20465;-59
2021/12/19 00:40:38;;;;;;;12.05;7.18;;;;;;;;;;5019449;28;20034;-59
2021/12/19 00:43:07;;;;;;;12.88;9.75;;;;;;;;;;5023202;28;20104;-59
2021/12/19 00:45:34;;;;;;;10.15;8.15;;;;;;;;;;5020886;28;20037;-59
2021/12/19 00:48:01;;;;;;;11.82;9.85;;;;;;;;;;5021623;28;20100;-59
2021/12/19 00:50:26;;;;;;;9.93;7.45;;;;;;;;;;5020599;28;20454;-59
2021/12/19 00:52:51;;;;;;;13.05;8.80;;;;;;;;;;5022494;28;20096;-59
2021/12/19 00:55:18;;;;;;;15.50;9.17;;;;;;;;;;5021433;28;20047;-59
2021/12/19 00:57:43;;;;;;;12.70;7.25;;;;;;;;;;5020519;28;20495;-59
2021/12/19 01:00:09;;;;;;;10.30;9.02;;;;;;;;;;5021460;28;20034;-59
2021/12/19 01:02:34;;;;;;;12.30;7.47;;;;;;;;;;5021513;28;20040;-59
2021/12/19 01:05:00;;;;;;;8.77;7.22;;;;;;;;;;5020121;28;20041;-59
2021/12/19 01:07:25;;;;;;;9.30;8.27;;;;;;;;;;5021329;28;20049;-59
2021/12/19 01:09:50;;;;;;;9.75;7.68;;;;;;;;;;5018727;28;20460;-59
2021/12/19 01:12:15;;;;;;;10.32;8.07;;;;;;;;;;5022995;28;20100;-59
2021/12/19 01:14:40;;;;;;;10.20;6.82;;;;;;;;;;5018879;28;20485;-59
2021/12/19 01:17:07;;;;;;;10.75;7.45;;;;;;;;;;5020691;28;20028;-59
2021/12/19 01:19:33;;;;;;;10.05;7.35;;;;;;;;;;5021142;28;20030;-59
2021/12/19 01:21:58;;;;;;;10.00;7.40;;;;;;;;;;5021374;28;20079;-59
2021/12/19 01:24:23;;;;;;;9.47;6.77;;;;;;;;;;5019543;28;20405;-59
2021/12/19 01:26:48;;;;;;;7.93;6.07;;;;;;;;;;5019605;28;20808;-59
2021/12/19 01:29:13;;;;;;;12.43;6.77;;;;;;;;;;5020340;28;20534;-59
2021/12/19 01:31:39;;;;;;;8.25;7.45;;;;;;;;;;5022123;28;20471;-60
2021/12/19 01:34:04;;;;;;;8.63;5.53;;;;;;;;;;5018952;28;20022;-59
2021/12/19 01:36:30;;;;;;;7.43;5.85;;;;;;;;;;5020177;28;20030;-59
2021/12/19 01:38:55;;;;;;;8.05;5.20;;;;;;;;;;5019713;28;20067;-58
2021/12/19 01:41:20;;;;;;;10.77;5.57;;;;;;;;;;5021283;28;20100;-59
2021/12/19 01:43:45;;;;;;;7.80;4.80;;;;;;;;;;5022566;28;20470;-59
2021/12/19 01:46:10;;;;;;;7.70;5.57;;;;;;;;;;5017019;28;20467;-59
2021/12/19 01:48:36;;;;;;;7.75;5.97;;;;;;;;;;5021355;28;20037;-59
2021/12/19 01:51:01;;;;;;;6.97;5.33;;;;;;;;;;5018428;28;20401;-59
2021/12/19 01:53:26;;;;;;;7.78;5.70;;;;;;;;;;5021537;28;20482;-59
2021/12/19 01:55:51;;;;;;;8.05;5.85;;;;;;;;;;5017902;28;20061;-59
2021/12/19 01:58:16;;;;;;;5.90;4.97;;;;;;;;;;5022308;28;20045;-59
2021/12/19 02:00:46;;;;;;;9.47;6.47;;;;;;;;;;5018282;28;20441;-59
2021/12/19 02:03:12;;;;;;;7.97;5.78;;;;;;;;;;5021202;28;20389;-59
2021/12/19 02:05:37;;;;;;;6.75;6.15;;;;;;;;;;5019799;28;20125;-59
2021/12/19 02:08:03;;;;;;;5.80;4.35;;;;;;;;;;5019999;28;20385;-59
2021/12/19 02:10:29;;;;;;;6.28;5.07;;;;;;;;;;5019913;28;20485;-59
2021/12/19 02:12:55;;;;;;;7.88;5.00;;;;;;;;;;5019088;28;20122;-59
2021/12/19 02:15:22;;;;;;;7.07;5.20;;;;;;;;;;5016269;28;20112;-59
2021/12/19 02:17:49;;;;;;;8.75;6.05;;;;;;;;;;5019604;28;20021;-59
2021/12/19 02:20:15;;;;;;;7.18;5.00;;;;;;;;;;5018278;28;20038;-59
2021/12/19 02:22:41;;;;;;;6.93;4.45;;;;;;;;;;5021148;28;20496;-59
2021/12/19 02:25:06;;;;;;;7.93;5.03;;;;;;;;;;5018927;28;20034;-59
2021/12/19 02:27:31;;;;;;;6.50;5.78;;;;;;;;;;5020555;28;20014;-59
2021/12/19 02:29:56;;;;;;;7.40;5.40;;;;;;;;;;5020402;28;20065;-59
2021/12/19 02:32:22;;;;;;;6.27;3.87;;;;;;;;;;5019548;28;20018;-59
2021/12/19 02:34:49;;;;;;;9.43;5.43;;;;;;;;;;5019931;28;20453;-59
2021/12/19 02:37:50;;;;;;;6.45;5.00;;;;;;;;;;5021020;28;20511;-59
2021/12/19 02:40:29;;;;;;;5.47;4.93;;;;;;;;;;5018410;28;20034;-59
2021/12/19 02:48:25;;;;;;;8.40;5.35;;;;;;;;;;5019337;28;20052;-59
2021/12/19 02:50:53;;;;;;;9.25;5.72;;;;;;;;;;5019260;28;20477;-60
2021/12/19 02:53:27;;;;;;;8.02;5.07;;;;;;;;;;5019174;28;20025;-60
2021/12/19 02:55:52;;;;;;;9.15;5.10;;;;;;;;;;5018826;28;20026;-60
2021/12/19 02:58:18;;;;;;;9.27;5.53;;;;;;;;;;5019823;28;20057;-60
2021/12/19 03:00:43;;;;;;;7.78;5.85;;;;;;;;;;5019360;28;20535;-60
2021/12/19 03:03:08;;;;;;;9.90;5.37;;;;;;;;;;5020372;28;20655;-60
2021/12/19 03:05:33;;;;;;;8.27;5.25;;;;;;;;;;5018434;28;20044;-60
2021/12/19 03:08:01;;;;;;;6.85;5.85;;;;;;;;;;5019032;28;20034;-60
2021/12/19 03:11:35;;;;;;;6.38;4.95;;;;;;;;;;5019336;28;20030;-60
2021/12/19 03:18:39;;;;;;;8.55;5.60;;;;;;;;;;5020891;28;20503;-60
2021/12/19 03:21:05;;;;;;;6.55;4.88;;;;;;;;;;5018118;28;20038;-60
2021/12/19 03:23:31;;;;;;;6.32;5.60;;;;;;;;;;5020028;28;20043;-60
2021/12/19 03:25:56;;;;;;;7.88;5.55;;;;;;;;;;5018532;28;20128;-60
2021/12/19 03:28:21;;;;;;;6.70;4.70;;;;;;;;;;5021103;28;20392;-60
2021/12/19 03:30:47;;;;;;;6.88;5.40;;;;;;;;;;5019750;28;20444;-60
2021/12/19 03:33:12;;;;;;;7.93;5.30;;;;;;;;;;5024228;28;20496;-60
2021/12/19 03:35:38;;;;;;;8.93;5.35;;;;;;;;;;5020847;28;20041;-60
2021/12/19 03:38:05;;;;;;;6.50;4.55;;;;;;;;;;5024797;28;20017;-59
2021/12/19 03:40:42;;;;;;;6.65;4.40;;;;;;;;;;5020757;28;20675;-59
2021/12/19 03:43:09;;;;;;;7.00;5.10;;;;;;;;;;5022687;28;20439;-59
2021/12/19 03:45:35;;;;;;;8.45;6.35;;;;;;;;;;5019838;28;20120;-59
2021/12/19 03:48:01;;;;;;;5.68;4.47;;;;;;;;;;5024546;28;20084;-59
2021/12/19 03:50:26;;;;;;;6.95;5.18;;;;;;;;;;5021696;28;20120;-59
2021/12/19 03:52:52;;;;;;;7.97;5.63;;;;;;;;;;5023515;28;20052;-59
2021/12/19 03:55:18;;;;;;;8.45;4.72;;;;;;;;;;5020852;28;20124;-59
2021/12/19 03:57:43;;;;;;;8.35;4.78;;;;;;;;;;5022152;28;20046;-60
2021/12/19 04:00:11;;;;;;;8.52;4.85;;;;;;;;;;5022436;28;20033;-59
2021/12/19 04:02:36;;;;;;;10.10;5.70;;;;;;;;;;5024391;28;20529;-59
2021/12/19 04:05:02;;;;;;;6.88;5.63;;;;;;;;;;5022264;28;20041;-59
2021/12/19 04:07:28;;;;;;;9.52;4.80;;;;;;;;;;5023687;28;20105;-59
2021/12/19 04:09:53;;;;;;;7.28;5.05;;;;;;;;;;5022481;28;20038;-59
2021/12/19 04:12:20;;;;;;;6.25;5.65;;;;;;;;;;5022430;28;20470;-59
2021/12/19 04:14:45;;;;;;;13.23;6.88;;;;;;;;;;5019428;28;20030;-59
2021/12/19 04:17:10;;;;;;;10.05;6.50;;;;;;;;;;5023665;28;20022;-59
2021/12/19 04:19:36;;;;;;;16.17;6.15;;;;;;;;;;5021188;28;20029;-59
2021/12/19 04:22:01;;;;;;;12.00;6.97;;;;;;;;;;5021685;28;20096;-59
2021/12/19 04:24:26;;;;;;;15.27;7.50;;;;;;;;;;5021115;28;20038;-59
2021/12/19 04:26:52;;;;;;;8.90;5.70;;;;;;;;;;5022877;28;20071;-60
2021/12/19 04:29:17;;;;;;;10.45;7.65;;;;;;;;;;5022614;28;20401;-60
2021/12/19 04:31:43;;;;;;;9.32;5.55;;;;;;;;;;5021798;28;20358;-60
2021/12/19 04:34:08;;;;;;;7.80;5.43;;;;;;;;;;5021378;28;20018;-60
2021/12/19 04:36:38;;;;;;;7.50;6.22;;;;;;;;;;5023044;28;21027;-60
2021/12/19 04:39:31;;;;;;;6.90;5.25;;;;;;;;;;5020479;28;20129;-60
2021/12/19 04:55:46;;;;;;;11.30;5.97;;;;;;;;;;5040253;28;20030;-59
2021/12/19 04:58:34;;;;;;;7.70;4.93;;;;;;;;;;5041947;28;20049;-60
2021/12/19 05:03:47;;;;;;;6.70;4.20;;;;;;;;;;5042257;28;20025;-60
2021/12/19 05:14:31;;;;;;;5.95;4.22;;;;;;;;;;5016978;28;20559;-59
2021/12/19 05:17:03;;;;;;;4.70;3.40;;;;;;;;;;5022088;28;20028;-60
2021/12/19 05:19:35;;;;;;;4.97;3.28;;;;;;;;;;5018235;28;20036;-59
2021/12/19 05:22:02;;;;;;;5.28;3.45;;;;;;;;;;5019491;28;20477;-59
2021/12/19 05:27:05;;;;;;;4.90;3.30;;;;;;;;;;5023010;28;20493;-59
2021/12/19 05:29:30;;;;;;;;;;;;;;;;;;5020320;28;20531;-59
2021/12/19 05:31:55;;;;;;;5.20;3.72;;;;;;;;;;5021516;28;20420;-59
2021/12/19 05:34:21;;;;;;;3.70;2.90;;;;;;;;;;5018481;28;20034;-59
2021/12/19 05:45:19;;;;;;;3.42;2.47;;;;;;;;;;5018994;28;20087;-60
2021/12/19 05:47:46;;;;;;;3.63;3.17;;;;;;;;;;5018249;28;20433;-59
2021/12/19 05:50:11;;;;;;;3.47;3.17;;;;;;;;;;5020994;28;20375;-59
2021/12/19 05:52:37;;;;;;;7.07;2.95;;;;;;;;;;5017356;28;20025;-59
2021/12/19 05:55:03;;;;;;;3.20;2.90;;;;;;;;;;5017211;28;20034;-59
2021/12/19 05:57:28;;;;;;;3.25;2.90;;;;;;;;;;5021548;28;20464;-59
2021/12/19 05:59:53;;;;;;;5.67;3.73;;;;;;;;;;5018181;28;20512;-59
2021/12/19 06:02:18;;;;;;;5.77;4.67;;;;;;;;;;5018298;28;20468;-59
2021/12/19 06:04:43;;;;;;;3.30;3.00;;;;;;;;;;5018806;28;20457;-59
2021/12/19 06:07:09;;;;;;;9.73;3.92;;;;;;;;;;5020251;28;20040;-59
2021/12/19 06:09:34;;;;;;;3.53;3.22;;;;;;;;;;5018690;28;20112;-59
2021/12/19 06:11:59;;;;;;;4.47;2.63;;;;;;;;;;5019668;28;20022;-59
2021/12/19 06:14:31;;;;;;;11.45;3.17;;;;;;;;;;5018088;28;20507;-59
2021/12/19 06:16:56;;;;;;;2.45;2.25;;;;;;;;;;5018998;28;20028;-59
2021/12/19 06:19:21;;;;;;;2.43;2.23;;;;;;;;;;5016323;28;20425;-59
2021/12/19 06:21:46;;;;;;;2.50;2.30;;;;;;;;;;5022302;28;20060;-59
2021/12/19 06:24:11;;;;;;;2.08;1.98;;;;;;;;;;5015594;28;20026;-59
2021/12/19 06:26:37;;;;;;;2.35;2.15;;;;;;;;;;5021474;28;20022;-59
2021/12/19 06:29:03;;;;;;;2.63;2.42;;;;;;;;;;5018401;28;20080;-59
2021/12/19 06:31:28;;;;;;;3.10;2.47;;;;;;;;;;5015520;28;20022;-59
2021/12/19 06:33:53;;;;;;;5.75;2.67;;;;;;;;;;5018167;28;20073;-58
2021/12/19 06:36:18;;;;;;;2.85;2.35;;;;;;;;;;5019736;28;20125;-59
2021/12/19 06:38:43;;;;;;;5.37;2.63;;;;;;;;;;5028987;28;20489;-59
2021/12/19 06:41:08;;;;;;;2.53;2.43;;;;;;;;;;5021620;28;20041;-59
2021/12/19 06:43:34;;;;;;;6.13;4.20;;;;;;;;;;5014260;28;20093;-59
2021/12/19 06:45:59;;;;;;;4.50;2.90;;;;;;;;;;5015254;28;20126;-58
2021/12/19 06:48:24;;;;;;;4.65;4.25;;;;;;;;;;5020380;28;20452;-59
2021/12/19 06:50:50;;;;;;;3.22;2.92;;;;;;;;;;5017390;28;20033;-59
2021/12/19 06:53:15;;;;;;;3.15;2.85;;;;;;;;;;5019068;28;20502;-59
2021/12/19 06:55:40;;;;;;;3.27;3.00;;;;;;;;;;5013942;28;20041;-59
2021/12/19 06:58:06;;;;;;;5.93;4.57;;;;;;;;;;5011403;28;20497;-58
2021/12/19 07:00:31;;;;;;;4.63;4.23;;;;;;;;;;5022459;28;20408;-60
2021/12/19 07:02:57;;;;;;;5.85;4.80;;;;;;;;;;5022093;28;20104;-59
2021/12/19 07:05:22;;;;;;;7.22;3.28;;;;;;;;;;5027482;28;20041;-59
2021/12/19 07:07:47;;;;;;;6.53;2.97;;;;;;;;;;5032211;28;20108;-59
2021/12/19 07:10:12;;;;;;;3.95;2.85;;;;;;;;;;5029183;28;20464;-59
2021/12/19 07:12:37;;;;;;;5.03;3.90;;;;;;;;;;5031527;28;20024;-59
2021/12/19 07:15:04;;;;;;;3.10;2.78;;;;;;;;;;5024820;28;20498;-58
2021/12/19 07:17:29;;;;;;;6.32;3.70;;;;;;;;;;5031681;28;20009;-59
2021/12/19 07:19:54;;;;;;;4.05;2.70;;;;;;;;;;5013707;28;20063;-59
2021/12/19 07:22:20;;;;;;;3.40;3.10;;;;;;;;;;5029987;28;20021;-59
2021/12/19 07:24:48;;;;;;;4.73;4.27;;;;;;;;;;5029991;28;20784;-58
2021/12/19 07:27:14;;;;;;;8.73;3.35;;;;;;;;;;5029284;28;20499;-59
2021/12/19 07:29:39;;;;;;;4.57;3.25;;;;;;;;;;5015669;28;20058;-59
2021/12/19 07:32:04;;;;;;;3.03;2.80;;;;;;;;;;5013366;28;20057;-58
2021/12/19 07:34:32;;;;;;;3.92;3.35;;;;;;;;;;5019144;28;20128;-59
2021/12/19 07:36:58;;;;;;;3.85;3.53;;;;;;;;;;5016643;28;20034;-59
2021/12/19 07:42:01;;;;;;;4.63;3.67;;;;;;;;;;5031253;28;20120;-59
2021/12/19 07:44:26;;;;;;;4.78;4.13;;;;;;;;;;5016265;28;20129;-58
2021/12/19 07:46:51;;;;;;;3.83;3.55;;;;;;;;;;5029600;28;20068;-59
2021/12/19 07:49:17;;;;;;;4.95;2.90;;;;;;;;;;5025969;28;20089;-59
2021/12/19 07:51:42;;;;;;;3.88;3.58;;;;;;;;;;5022568;28;20029;-59
2021/12/19 07:54:07;;;;;;;4.63;3.58;;;;;;;;;;5023205;28;20072;-59
2021/12/19 07:56:33;;;;;;;6.20;4.07;;;;;;;;;;5019150;28;20050;-57
2021/12/19 07:58:58;;;;;;;3.85;3.55;;;;;;;;;;5016514;28;20028;-57
2021/12/19 08:01:23;;;;;;;5.60;4.28;;;;;;;;;;5017872;28;20013;-58
2021/12/19 08:03:50;;;;;;;5.10;4.03;;;;;;;;;;5031585;28;20048;-57
2021/12/19 08:06:15;;;;;;;3.83;3.50;;;;;;;;;;5019150;28;20049;-57
2021/12/19 08:08:46;;;;;;;5.70;4.80;;;;;;;;;;5025393;28;20040;-57
2021/12/19 08:13:56;;;;;;;4.90;4.47;;;;;;;;;;5012812;28;20025;-57
2021/12/19 08:16:21;;;;;;;3.67;3.33;;;;;;;;;;5016340;28;20093;-57
2021/12/19 08:18:46;;;;;;;6.65;5.53;;;;;;;;;;5026359;28;20025;-57
2021/12/19 08:21:11;;;;;;;5.60;5.00;;;;;;;;;;5029423;28;20503;-57
2021/12/19 08:23:36;;;;;;;5.37;4.80;;;;;;;;;;5027790;28;20057;-57
2021/12/19 08:26:02;;;;;;;8.60;5.75;;;;;;;;;;5024795;28;20811;-57
2021/12/19 08:28:27;;;;;;;6.10;4.53;;;;;;;;;;5021773;28;20021;-57
2021/12/19 08:30:52;;;;;;;6.40;5.00;;;;;;;;;;5019245;28;20436;-57
2021/12/19 08:33:17;;;;;;;6.30;5.23;;;;;;;;;;5025621;28;20504;-57
2021/12/19 08:35:42;;;;;;;6.57;5.90;;;;;;;;;;5018648;28;20544;-57
2021/12/19 08:38:08;;;;;;;6.00;4.97;;;;;;;;;;5027051;28;20449;-57
2021/12/19 08:40:33;;;;;;;6.80;5.50;;;;;;;;;;5016557;28;20501;-57
2021/12/19 08:42:58;;;;;;;9.35;7.65;;;;;;;;;;5015538;28;20504;-57
2021/12/19 08:45:24;;;;;;;9.82;6.78;;;;;;;;;;5013339;28;20613;-57
2021/12/19 08:47:49;;;;;;;11.13;6.53;;;;;;;;;;5012720;28;20470;-57
2021/12/19 08:50:15;;;;;;;9.55;7.30;;;;;;;;;;5026731;28;20042;-57
2021/12/19 08:52:42;;;;;;;11.68;6.38;;;;;;;;;;5015274;28;20556;-57
2021/12/19 08:55:08;;;;;;;9.27;7.85;;;;;;;;;;5021405;28;20409;-57
2021/12/19 08:57:33;;;;;;;7.88;6.72;;;;;;;;;;5015740;28;20048;-57
2021/12/19 08:59:58;;;;;;;13.15;6.55;;;;;;;;;;5011744;28;20037;-57
2021/12/19 09:02:24;;;;;;;9.27;7.43;;;;;;;;;;5026662;28;20025;-57
2021/12/19 09:04:49;;;;;;;8.93;7.78;;;;;;;;;;5030383;28;20040;-57
2021/12/19 09:07:14;;;;;;;11.45;7.97;;;;;;;;;;5031355;28;20488;-58
2021/12/19 09:09:40;;;;;;;11.43;9.45;;;;;;;;;;5026252;28;20038;-58
2021/12/19 09:12:05;;;;;;;13.48;8.80;;;;;;;;;;5013946;28;20112;-58
2021/12/19 09:14:30;;;;;;;13.50;9.63;;;;;;;;;;5028610;28;20377;-60
2021/12/19 09:16:56;;;;;;;18.70;10.40;;;;;;;;;;5042032;28;20089;-58
2021/12/19 09:19:21;;;;;;;11.15;8.65;;;;;;;;;;5048044;28;20482;-59
2021/12/19 09:21:46;;;;;;;16.60;9.02;;;;;;;;;;5052252;28;20470;-59
2021/12/19 09:24:11;;;;;;;16.30;12.70;;;;;;;;;;5048216;28;20121;-58
2021/12/19 09:26:37;;;;;;;15.10;9.57;;;;;;;;;;5049012;28;20434;-58
2021/12/19 09:29:02;;;;;;;12.90;8.27;;;;;;;;;;5047605;28;20468;-58
2021/12/19 09:31:29;;;;;;;14.77;8.30;;;;;;;;;;5049391;28;20514;-59
2021/12/19 09:33:54;;;;;;;18.52;10.65;;;;;;;;;;5046455;28;20478;-59
2021/12/19 09:36:19;;;;;;;11.93;8.57;;;;;;;;;;5028750;28;20041;-58
2021/12/19 09:38:48;;;;;;;21.60;10.73;;;;;;;;;;5044060;28;20032;-59
2021/12/19 09:41:16;;;;;;;13.63;10.68;;;;;;;;;;5049715;28;20610;-58
2021/12/19 09:43:41;;;;;;;11.70;8.23;;;;;;;;;;5048509;28;20142;-58
2021/12/19 09:46:11;;;;;;;20.77;12.00;;;;;;;;;;5030402;28;20528;-58
2021/12/19 09:48:37;;;;;;;13.75;10.57;;;;;;;;;;5034030;28;20450;-58
2021/12/19 09:51:03;;;;;;;17.23;9.77;;;;;;;;;;5049936;28;20496;-58
2021/12/19 09:53:28;;;;;;;24.90;14.90;;;;;;;;;;5051319;28;20024;-58
2021/12/19 09:55:53;;;;;;;23.43;12.50;;;;;;;;;;5049795;28;20067;-58
2021/12/19 09:58:18;;;;;;;21.52;9.98;;;;;;;;;;5051260;28;20551;-58
2021/12/19 10:00:43;;;;;;;19.38;12.02;;;;;;;;;;5049811;28;20041;-58
2021/12/19 10:03:11;;;;;;;27.70;11.37;;;;;;;;;;5032754;28;20055;-58
2021/12/19 10:05:37;;;;;;;13.75;9.00;;;;;;;;;;5029655;28;21022;-58
2021/12/19 10:08:03;;;;;;;19.15;11.05;;;;;;;;;;5037832;28;20028;-58
2021/12/19 10:10:52;;;;;;;15.63;12.05;;;;;;;;;;5041851;28;20098;-58
2021/12/19 10:13:29;;;;;;;17.02;10.13;;;;;;;;;;5051147;28;20036;-58
2021/12/19 10:15:54;;;;;;;15.05;10.50;;;;;;;;;;5049802;28;20110;-58
2021/12/19 10:18:19;;;;;;;25.92;13.05;;;;;;;;;;5050045;28;20476;-59
2021/12/19 10:20:46;;;;;;;32.50;13.52;;;;;;;;;;5040836;28;20033;-59
2021/12/19 10:23:12;;;;;;;31.38;10.40;;;;;;;;;;5031366;28;20017;-58
2021/12/19 10:25:37;;;;;;;19.10;9.30;;;;;;;;;;5029135;28;20417;-58
2021/12/19 10:28:04;;;;;;;59.05;24.08;;;;;;;;;;5031427;28;20063;-58
2021/12/19 10:30:34;;;;;;;22.25;9.93;;;;;;;;;;5041636;28;20036;-58
2021/12/19 10:33:04;;;;;;;22.08;10.52;;;;;;;;;;5048679;28;20480;-58
2021/12/19 10:35:29;;;;;;;17.90;10.23;;;;;;;;;;5048877;28;20094;-58
2021/12/19 10:37:54;;;;;;;22.67;10.23;;;;;;;;;;5044513;28;20401;-58
2021/12/19 10:40:20;;;;;;;13.80;9.30;;;;;;;;;;5028378;28;20039;-58
2021/12/19 10:42:45;;;;;;;22.85;10.55;;;;;;;;;;5030351;28;20017;-58
2021/12/19 10:48:09;;;;;;;16.50;10.27;;;;;;;;;;5050276;28;21003;-58
2021/12/19 10:50:41;;;;;;;25.40;9.98;;;;;;;;;;5048872;28;20068;-58
2021/12/19 10:53:06;;;;;;;20.50;10.05;;;;;;;;;;5036906;28;20056;-58
2021/12/19 10:55:32;;;;;;;25.87;10.63;;;;;;;;;;5028876;28;20033;-58
2021/12/19 10:57:57;;;;;;;19.02;10.55;;;;;;;;;;5030634;28;20472;-58
2021/12/19 11:00:24;;;;;;;16.42;8.77;;;;;;;;;;5029104;28;20029;-58
2021/12/19 11:02:49;;;;;;;21.17;10.25;;;;;;;;;;5030241;28;20025;-58
2021/12/19 11:05:34;;;;;;;18.40;10.17;;;;;;;;;;5029347;28;20034;-58
2021/12/19 11:08:03;;;;;;;18.30;9.63;;;;;;;;;;5032712;28;20040;-58
2021/12/19 11:10:29;;;;;;;21.05;9.48;;;;;;;;;;5048640;28;20059;-58
2021/12/19 11:13:07;;;;;;;25.75;11.98;;;;;;;;;;5050390;28;20068;-58
2021/12/19 11:15:33;;;;;;;34.85;16.30;;;;;;;;;;5048905;28;20033;-58
2021/12/19 11:17:58;;;;;;;27.60;14.35;;;;;;;;;;5049872;28;20121;-58
2021/12/19 11:20:23;;;;;;;17.13;10.60;;;;;;;;;;5029019;28;20096;-58
2021/12/19 11:22:48;;;;;;;35.90;16.25;;;;;;;;;;5030525;28;20028;-58
2021/12/19 11:25:14;;;;;;;32.92;16.10;;;;;;;;;;5028763;28;20120;-58
2021/12/19 11:27:39;;;;;;;24.45;15.48;;;;;;;;;;5041572;28;20098;-58
2021/12/19 11:30:05;;;;;;;19.00;9.80;;;;;;;;;;5048986;28;20053;-58
2021/12/19 11:32:32;;;;;;;28.67;17.05;;;;;;;;;;5049600;28;20558;-59
2021/12/19 11:35:00;;;;;;;14.07;8.20;;;;;;;;;;5048166;28;20036;-58
2021/12/19 11:37:40;;;;;;;14.73;10.18;;;;;;;;;;5030151;28;20467;-58
2021/12/19 11:40:06;;;;;;;15.07;8.00;;;;;;;;;;5028377;28;20064;-58
2021/12/19 11:42:32;;;;;;;16.70;8.45;;;;;;;;;;5029955;28;20079;-58
2021/12/19 11:47:39;;;;;;;8.95;6.00;;;;;;;;;;5029777;28;20025;-58
2021/12/19 11:50:23;;;;;;;14.57;7.38;;;;;;;;;;5039035;28;20067;-58
2021/12/19 11:52:53;;;;;;;16.83;7.72;;;;;;;;;;5050996;28;20479;-58
2021/12/19 11:55:21;;;;;;;15.52;6.28;;;;;;;;;;5040969;28;20037;-59
2021/12/19 11:57:47;;;;;;;;;;;;;;;;;;5043900;28;20053;-58
2021/12/19 12:00:25;;;;;;;17.77;7.15;;;;;;;;;;5043306;28;19974;-58
2021/12/19 12:03:10;;;;;;;14.40;6.57;;;;;;;;;;5049922;28;20522;-58
2021/12/19 12:05:35;;;;;;;10.25;6.80;;;;;;;;;;5040030;28;20469;-58
2021/12/19 12:08:10;;;;;;;16.05;7.70;;;;;;;;;;5045720;28;20107;-57
2021/12/19 12:10:51;;;;;;;13.20;6.05;;;;;;;;;;5043074;28;20140;-57
2021/12/19 12:13:25;;;;;;;16.65;7.90;;;;;;;;;;5033753;28;20017;-57
2021/12/19 12:15:54;;;;;;;15.57;7.55;;;;;;;;;;5045606;28;20040;-57
2021/12/19 12:18:19;;;;;;;;;;;;;;;;;;5042917;28;20071;-57
2021/12/19 12:20:44;;;;;;;12.05;7.88;;;;;;;;;;5051692;28;19908;-58
2021/12/19 12:23:11;;;;;;;7.73;5.70;;;;;;;;;;5048043;28;20439;-57
2021/12/19 12:25:41;;;;;;;12.43;6.25;;;;;;;;;;5031723;28;20041;-57
2021/12/19 12:28:09;;;;;;;13.75;6.28;;;;;;;;;;5033490;28;20021;-57
2021/12/19 12:30:39;;;;;;;10.95;6.35;;;;;;;;;;5031745;28;20046;-58
2021/12/19 12:33:06;;;;;;;11.60;5.50;;;;;;;;;;5043888;28;20029;-58
2021/12/19 12:35:33;;;;;;;10.45;7.20;;;;;;;;;;5034139;28;20033;-57
2021/12/19 12:37:59;;;;;;;13.88;6.03;;;;;;;;;;5037210;28;20045;-57
2021/12/19 12:40:31;;;;;;;12.57;6.85;;;;;;;;;;5043225;28;20068;-58
2021/12/19 12:42:57;;;;;;;9.63;7.22;;;;;;;;;;5043939;28;20029;-58
2021/12/19 12:45:22;;;;;;;10.70;5.25;;;;;;;;;;5036162;28;20060;-57
2021/12/19 12:47:48;;;;;;;10.48;6.43;;;;;;;;;;5040806;28;20056;-57
2021/12/19 12:50:14;;;;;;;9.55;5.45;;;;;;;;;;5039283;28;20057;-57
2021/12/19 12:52:39;;;;;;;12.10;8.07;;;;;;;;;;5037195;28;20983;-58
2021/12/19 12:55:04;;;;;;;10.48;5.65;;;;;;;;;;5042535;28;20075;-57
2021/12/19 12:57:30;;;;;;;16.92;7.32;;;;;;;;;;5046576;28;20037;-57
2021/12/19 12:59:55;;;;;;;25.15;12.77;;;;;;;;;;5045328;28;20026;-57
2021/12/19 13:02:28;;;;;;;19.75;9.02;;;;;;;;;;5030765;28;20033;-58
2021/12/19 13:04:55;;;;;;;11.05;6.20;;;;;;;;;;5035436;28;20075;-57
2021/12/19 13:07:22;;;;;;;17.30;7.88;;;;;;;;;;5042534;28;20075;-57
2021/12/19 13:09:47;;;;;;;9.07;5.63;;;;;;;;;;5033058;28;20409;-57
2021/12/19 13:12:16;;;;;;;12.77;6.03;;;;;;;;;;5035642;28;20017;-57
2021/12/19 13:14:41;;;;;;;9.95;6.07;;;;;;;;;;5039459;28;20029;-57
2021/12/19 13:17:12;;;;;;;9.73;5.87;;;;;;;;;;5043569;28;20066;-57
2021/12/19 13:19:43;;;;;;;15.70;8.35;;;;;;;;;;5045874;28;20462;-57
2021/12/19 13:22:14;;;;;;;13.00;7.80;;;;;;;;;;5047141;28;20512;-57
2021/12/19 13:24:41;;;;;;;12.73;7.10;;;;;;;;;;5012937;28;20823;-57
2021/12/19 13:27:20;;;;;;;13.80;6.50;;;;;;;;;;5020060;28;20041;-57
2021/12/19 13:30:03;;;;;;;19.27;7.82;;;;;;;;;;5012686;28;20127;-57
2021/12/19 13:32:39;;;;;;;11.93;5.95;;;;;;;;;;5019495;28;20017;-57
2021/12/19 13:35:24;;;;;;;7.45;5.10;;;;;;;;;;5020303;28;20029;-57
2021/12/19 13:37:52;;;;;;;14.68;6.68;;;;;;;;;;5026631;28;20034;-57
2021/12/19 13:40:18;;;;;;;7.77;5.40;;;;;;;;;;5019127;28;20048;-57
2021/12/19 13:42:47;;;;;;;18.27;6.63;;;;;;;;;;5026973;28;20013;-57
2021/12/19 13:45:21;;;;;;;15.18;6.85;;;;;;;;;;5023541;28;20119;-57
2021/12/19 13:47:47;;;;;;;8.38;6.47;;;;;;;;;;5014501;28;20029;-57
2021/12/19 13:50:12;;;;;;;9.82;5.85;;;;;;;;;;5015909;28;20034;-57
2021/12/19 13:52:38;;;;;;;13.85;6.82;;;;;;;;;;5024787;28;20037;-57
2021/12/19 13:55:07;;;;;;;15.95;6.88;;;;;;;;;;5011004;28;20025;-57
2021/12/19 13:57:32;;;;;;;15.35;5.97;;;;;;;;;;5020186;28;20547;-57
2021/12/19 13:59:57;;;;;;;23.07;12.30;;;;;;;;;;5026717;28;20140;-57
2021/12/19 14:02:22;;;;;;;14.50;6.20;;;;;;;;;;5020978;28;20531;-57
2021/12/19 14:04:48;;;;;;;8.50;7.63;;;;;;;;;;5018334;28;20072;-57
2021/12/19 14:07:15;;;;;;;16.33;10.37;;;;;;;;;;5018161;28;20385;-57
2021/12/19 14:09:42;;;;;;;22.38;6.85;;;;;;;;;;5029941;28;20463;-57
2021/12/19 14:12:23;;;;;;;12.00;4.80;;;;;;;;;;5037249;28;20033;-57
2021/12/19 14:14:49;;;;;;;17.92;8.48;;;;;;;;;;5041418;28;20028;-57
2021/12/19 14:17:14;;;;;;;15.50;5.85;;;;;;;;;;5050000;28;20013;-58
2021/12/19 14:19:47;;;;;;;12.07;5.63;;;;;;;;;;5050300;28;20028;-57
2021/12/19 14:22:14;;;;;;;14.18;7.22;;;;;;;;;;5059080;28;20166;-58
2021/12/19 14:24:42;;;;;;;12.65;6.72;;;;;;;;;;5065735;28;20718;-57
2021/12/19 14:27:07;;;;;;;14.90;6.47;;;;;;;;;;5052381;28;20068;-58
2021/12/19 14:29:33;;;;;;;19.02;6.93;;;;;;;;;;5031135;28;20517;-57
2021/12/19 14:32:00;;;;;;;22.88;7.97;;;;;;;;;;5030959;28;20053;-58
2021/12/19 14:34:29;;;;;;;15.38;7.38;;;;;;;;;;5032027;28;20052;-58
2021/12/19 14:36:55;;;;;;;63.50;34.20;;;;;;;;;;5041404;28;20144;-57
2021/12/19 14:39:24;;;;;;;13.05;7.10;;;;;;;;;;5030114;28;20048;-57
2021/12/19 14:41:49;;;;;;;14.20;7.53;;;;;;;;;;5039555;28;20079;-57
2021/12/19 14:44:22;;;;;;;17.80;6.07;;;;;;;;;;5037324;28;20040;-57
2021/12/19 14:46:47;;;;;;;11.23;7.30;;;;;;;;;;5044425;28;20047;-57
2021/12/19 14:49:13;;;;;;;16.33;6.88;;;;;;;;;;5041716;28;20030;-57
2021/12/19 14:51:38;;;;;;;18.33;10.68;;;;;;;;;;5042009;28;20523;-57
2021/12/19 14:54:03;;;;;;;30.85;17.02;;;;;;;;;;5033804;28;20517;-57
2021/12/19 14:56:29;;;;;;;17.63;8.13;;;;;;;;;;5038836;28;20049;-57
2021/12/19 14:58:58;;;;;;;16.13;7.07;;;;;;;;;;5033355;28;20041;-57
2021/12/19 15:01:23;;;;;;;;;;;;;;;;;;5045748;28;20033;-58
2021/12/19 15:04:08;;;;;;;20.00;6.40;;;;;;;;;;5044972;28;19946;-57
2021/12/19 15:06:38;;;;;;;12.10;5.03;;;;;;;;;;5036604;28;20042;-57
2021/12/19 15:09:06;;;;;;;21.23;7.07;;;;;;;;;;5032307;28;20116;-57
2021/12/19 15:11:31;;;;;;;14.48;5.93;;;;;;;;;;5029103;28;20044;-57
2021/12/19 15:13:56;;;;;;;14.45;6.47;;;;;;;;;;5031687;28;20022;-57
2021/12/19 15:16:21;;;;;;;13.17;5.70;;;;;;;;;;5042368;28;20036;-57
2021/12/19 15:18:47;;;;;;;32.25;11.80;;;;;;;;;;5039558;28;20025;-57
2021/12/19 15:21:13;;;;;;;24.10;6.80;;;;;;;;;;5029242;28;20445;-57
2021/12/19 15:23:42;;;;;;;14.95;5.43;;;;;;;;;;5041578;28;20021;-57
2021/12/19 15:26:12;;;;;;;13.27;6.22;;;;;;;;;;5037522;28;20037;-57
2021/12/19 15:28:37;;;;;;;23.92;5.88;;;;;;;;;;5044679;28;20029;-57
2021/12/19 15:31:02;;;;;;;13.27;7.75;;;;;;;;;;5053332;28;20037;-57
2021/12/19 15:33:28;;;;;;;22.30;8.47;;;;;;;;;;5049579;28;20028;-57
2021/12/19 15:35:53;;;;;;;18.63;8.00;;;;;;;;;;5032955;28;20053;-57
2021/12/19 15:38:18;;;;;;;22.23;7.82;;;;;;;;;;5044622;28;20519;-57